Airfield :







YOU CAN JOIN US ON...

 
LOGIN :

Register | Disclaimer

   EN    FR    IT 

 









Legend :    VFR   Marginal VFR   IFR   Intensive IFR   Very Intensive IFR
Visi :
Ceiling :
>= 8 km
>= 3000ft
5 to 8 km
1000 to 3000 ft
1500m to 5 km
500 to 1000 ft
800 to 1500m
200 to 500 ft
< 800m
< 200 ft
Symbols :   Thunderstorms  Fog  Heavy snow  Heavy precipitations  Wind > 20 kt






- Airport Elevation : 141 ft
- IATA code : YQI


CYQI - Yarmouth

CURRENT METAR :
  • 251800Z 10012G17KT 15SM FEW020 BKN250 04/M01 A3031 RMK SC1CI6 SC TR SLP267

EXPIRED METARs :
  • 251700Z 08011G18KT 15SM FEW016 BKN260 03/M01 A3034 RMK SF1CI6 SLP276
  • 251640Z 10014KT 15SM SCT016 BKN260 03/M01 A3034 RMK SF3CI4 SLP278
  • 251600Z 10011G17KT 15SM BKN014 BKN250 01/M02 A3038 RMK SF5CI2 SLP290

TAF TAF CYQI
Valid from the 25 at 18:00 until the 26 at 06:00 UTC


251738Z 2518/2606 10012KT P6SM FEW015
TEMPO 2518/2522 BKN015
FM252200 10012G22KT P6SM BKN008
TEMPO 2522/2602 SCT008
FM260200 10015G25KT P6SM OVC008 RMK NXT FCST BY 260000Z



MET'MAP, your aeronautical weather chart ! - Copyright ORBIFLY December 2007 - Disclaimer

ORBIFLY MET'MAP TEAM :

Programming & Development : Alexandra Zaïnal
Concept & original design : Baudouin d'Aumeries
Assistance for programming : Marc-Olivier Méhu
Technical & hardware support : Manuel Goepfert

Contact : metmap@orbifly.com




SOURCES & CREDITS :

   NOAA